Warning: Javascript must be enabled to use all the features on this page!


Page Loading - Please Wait...

Click to hideNews Bulletins

Peak Streamflow for the Nation

USGS 08210000 Nueces Rv nr Three Rivers, TX

Live Oak County, Texas
Hydrologic Unit Code 12110111
Latitude  28°25'38", Longitude  98°10'40" NAD27
Drainage area 15,427  square miles
Contributing drainage area 15,427  square miles
Gage datum 99.26 feet above NGVD29
Output formats
Table
Graph
Tab-separated file
peakfq (watstore) format
Reselect output format
Water
Year
Date Gage
Height
(feet)
Stream-
flow
(cfs)
1916 1916-08-25 30.00 9,550
1917 1916-11-10 13.05 2,960
1918 1918-09-21 29.20 9,110
1919 1919-09-18 46.00 85,000
1920 1919-10-19 36.10 16,200
1921 1921-09-10 29.20 9,800
1922 1922-05-05 35.40 15,000
1923 1923-02-24 41.90 39,300
1924 1923-12-03 29.40 10,200
1925 1925-06-10 36.75 17,600
1926 1926-05-19 24.45 6,980
1927 1927-06-16 32.70 11,600
1928 1928-05-14 23.90 6,760
1929 1929-05-31 41.70 37,900
1930 1930-06-14 30.80 10,100
1931 1931-05-11 22.003 6,040
1932 1932-07-08 43.726 56,000
1933 1932-10-05 23.18 5,980
1934 1934-01-17 22.35 5,730
1935 1935-06-15 44.67 66,700
1936 1936-07-03 40.10 28,300
1937 1936-10-05 29.97 8,860
1938 1937-12-30 35.09 14,300
1939 1939-09-13 24.60 6,420
1940 1940-07-03 37.74 19,600
1941 1941-09-19 41.22 34,400
1942 1942-07-09 44.64 55,000
1943 1943-06-12 21.38 5,090
1944 1944-09-06 38.48 20,500
1945 1945-06-19 25.40 6,670
1946 1946-09-01 38.34 24,600
1947 1946-10-13 42.57 40,700
1948 1948-07-03 22.70 5,9506
1949 1949-04-27 38.97 22,0006
1950 1950-06-09 22.74 5,6506
1951 1951-09-15 37.20 18,8006
1952 1952-05-29 22.51 5,5706
1953 1953-09-06 37.46 18,1006
1954 1954-07-02 34.36 12,8006
1955 1955-05-14 14.31 2,8906
1956 1956-08-29 24.87 6,7006
1957 1957-05-03 39.20 22,2006
1958 1958-02-25 42.99 56,5006
1959 1958-10-04 32.04 9,8106
1960 1959-10-16 36.83 16,5006
1961 1961-06-21 29.73 8,0306
1962 1962-06-05 16.59 2,9806
1963 1963-06-22 35.03 13,4006
1964 1964-09-24 39.19 21,2006
1965 1965-05-22 36.05 13,9006
1966 1966-04-27 26.54 6,1006
1967 1967-09-23 49.21 141,0006,9
1968 1968-01-22 40.64 36,0006
1969 1969-02-15 15.76 2,6806
1970 1970-06-03 36.85 14,9006
1971 1971-09-17 41.23 35,8006
1972 1971-10-21 41.89 41,7006
1973 1973-06-16 36.09 13,4006
1974 1973-10-11 37.49 16,4006
1975 1975-05-27 36.72 20,3006
1976 1976-09-21 30.03 8,3206
1977 1977-04-18 37.10 19,9006
1978 1978-08-05 31.83 10,8006
1979 1979-06-18 26.83 7,2406
1980 1980-08-13 39.46 24,4006
1981 1981-06-24 38.14 18,1006
1982 1982-05-26 29.843 9,4106
1983 1983-09-21 36.986 18,3006
1984 1983-10-10 11.56 1,6606
1985 1985-05-28 21.66 4,5606
1986 1985-10-22 24.47 5,7706
1987 1987-06-22 37.29 13,9006
1988 1988-07-02 6.88 6296
1989 1989-06-14 8.85 9806
1990 1990-07-20 36.15 12,6006
1991 1991-02-08 16.26 2,6106
1992 1992-02-07 32.49 9,1206
1993 1993-06-30 30.29 9,1206
1994 1994-05-17 21.11 4,4006
1995 1995-09-27 9.04 1,1606
1996 1996-09-01 18.49 3,5006
1997 1997-06-23 30.11 6,4506
1998 1998-09-09 33.45 9,9006
1999 1999-09-06 23.39 4,5106
2000 2000-06-13 20.51 3,8506
2001 2001-09-08 26.97 5,6606
2002 2002-09-12 44.45 48,5006
2003 2002-11-07 37.63 14,5006
2004 2003-10-19 39.49 18,3006
2005 2004-11-20 20.68 3,8306
2006 2006-09-25 14.04 2,0606
2007 2007-07-10 40.572 19,9006
2008 2008-07-25 8.79 9696
2009 2009-09-11 6.39 5726
2010 2010-04-17 26.71 6,4906
2011 2011-01-17 3.60 2476
2012 2012-05-14 14.98 2,5906
2013 2013-05-26 28.73 6,3506
2014 2013-10-21 38.95 16,9006
2015 2015-05-19 37.93 15,0006
2016 2016-08-24 30.42 7,5006
2017 2017-03-12 16.34 2,2906
2018 2017-10-08 34.14 10,5006
2019 2018-10-31 35.17 9,9406
2020 2020-03-22 14.53 1,8206
?
  Peak Gage-Height Qualification Codes.
?
  Peak Streamflow Qualification Codes.